Time;durP1;ratioP1;P1;durP2;ratioP2;P2;SDS_P1;SDS_P2;PMS_P1;PMS_P2;Temp;Humidity;BMP_temperature;BMP_pressure;BME280_temperature;BME280_humidity;BME280_pressure;Samples;Min_cycle;Max_cycle;Signal;HPM_P1;HPM_P2
2022/04/06 00:02:10;;;;;;;23.27;15.32;;;;;;;;;;4978662;28;20057;-84
2022/04/06 00:04:35;;;;;;;24.83;15.45;;;;;;;;;;4977682;28;20371;-84
2022/04/06 00:07:00;;;;;;;23.98;15.75;;;;;;;;;;4978208;28;20142;-84
2022/04/06 00:09:26;;;;;;;21.77;15.05;;;;;;;;;;4976738;28;20470;-85
2022/04/06 00:11:51;;;;;;;23.25;16.08;;;;;;;;;;4979244;28;20839;-85
2022/04/06 00:14:17;;;;;;;23.65;15.88;;;;;;;;;;4983199;28;20042;-84
2022/04/06 00:16:43;;;;;;;23.27;16.13;;;;;;;;;;4976686;28;20520;-84
2022/04/06 00:19:08;;;;;;;22.52;15.38;;;;;;;;;;4976203;28;20035;-84
2022/04/06 00:21:33;;;;;;;24.40;15.63;;;;;;;;;;4977467;28;20031;-84
2022/04/06 00:23:59;;;;;;;26.15;17.02;;;;;;;;;;4981771;28;20034;-84
2022/04/06 00:26:25;;;;;;;25.98;17.33;;;;;;;;;;4977234;28;20067;-84
2022/04/06 00:28:50;;;;;;;26.77;17.15;;;;;;;;;;4979436;28;20042;-84
2022/04/06 00:31:16;;;;;;;25.63;17.38;;;;;;;;;;4963190;28;20035;-84
2022/04/06 00:33:41;;;;;;;26.95;18.60;;;;;;;;;;4975973;28;20514;-84
2022/04/06 00:36:06;;;;;;;26.83;18.17;;;;;;;;;;4975824;28;20622;-85
2022/04/06 00:38:32;;;;;;;25.85;18.23;;;;;;;;;;4983636;28;20042;-84
2022/04/06 00:40:57;;;;;;;28.13;18.80;;;;;;;;;;4980894;28;20122;-83
2022/04/06 00:43:22;;;;;;;23.95;17.15;;;;;;;;;;4962538;28;20072;-84
2022/04/06 00:45:48;;;;;;;23.13;16.73;;;;;;;;;;4978256;28;20367;-85
2022/04/06 00:48:13;;;;;;;24.17;17.15;;;;;;;;;;4976355;28;20085;-83
2022/04/06 00:50:39;;;;;;;24.33;16.98;;;;;;;;;;4974352;28;20130;-84
2022/04/06 00:53:04;;;;;;;23.20;16.30;;;;;;;;;;4976843;28;20044;-84
2022/04/06 00:55:33;;;;;;;24.90;16.63;;;;;;;;;;4962029;28;20031;-84
2022/04/06 00:57:58;;;;;;;22.20;16.38;;;;;;;;;;4975245;28;20731;-84
2022/04/06 01:00:24;;;;;;;23.48;17.17;;;;;;;;;;4981369;28;20042;-83
2022/04/06 01:02:50;;;;;;;23.52;16.80;;;;;;;;;;4976531;28;20104;-84
2022/04/06 01:05:15;;;;;;;25.63;18.27;;;;;;;;;;4973562;28;20034;-84
2022/04/06 01:07:42;;;;;;;25.85;17.60;;;;;;;;;;4961341;28;20183;-84
2022/04/06 01:10:08;;;;;;;26.50;17.48;;;;;;;;;;4975574;28;20043;-85
2022/04/06 01:12:38;;;;;;;25.08;18.05;;;;;;;;;;4978279;28;20041;-84
2022/04/06 01:15:04;;;;;;;23.92;17.52;;;;;;;;;;4966959;28;20609;-84
2022/04/06 01:17:33;;;;;;;26.75;18.88;;;;;;;;;;4975227;28;20034;-84
2022/04/06 01:20:00;;;;;;;26.67;18.02;;;;;;;;;;4974566;28;20054;-84
2022/04/06 01:22:26;;;;;;;28.95;17.77;;;;;;;;;;4973920;28;20035;-85
2022/04/06 01:24:51;;;;;;;21.02;16.20;;;;;;;;;;4967974;28;20057;-84
2022/04/06 01:27:16;;;;;;;24.20;17.80;;;;;;;;;;4975879;28;20045;-85
2022/04/06 01:29:42;;;;;;;24.70;17.73;;;;;;;;;;4979590;28;20038;-84
2022/04/06 01:32:08;;;;;;;24.70;17.85;;;;;;;;;;4974586;28;20065;-85
2022/04/06 01:34:34;;;;;;;26.92;18.65;;;;;;;;;;4978077;28;20043;-84
2022/04/06 01:37:03;;;;;;;26.17;18.48;;;;;;;;;;4975241;28;20494;-84
2022/04/06 01:39:28;;;;;;;25.73;17.83;;;;;;;;;;4975835;28;20050;-83
2022/04/06 01:41:54;;;;;;;26.35;18.95;;;;;;;;;;4974779;28;20047;-84
2022/04/06 01:44:19;;;;;;;23.88;17.02;;;;;;;;;;4974550;28;20062;-84
2022/04/06 01:46:47;;;;;;;26.38;17.90;;;;;;;;;;4967072;28;20046;-84
2022/04/06 01:52:15;;;;;;;24.35;17.42;;;;;;;;;;4975867;28;19929;-84
2022/04/06 01:54:45;;;;;;;28.48;17.92;;;;;;;;;;4976545;28;20062;-84
2022/04/06 01:57:11;;;;;;;26.27;17.60;;;;;;;;;;4975091;28;20053;-84
2022/04/06 01:59:37;;;;;;;26.70;18.70;;;;;;;;;;4966860;28;20108;-84
2022/04/06 02:02:03;;;;;;;25.70;18.20;;;;;;;;;;4974090;28;20035;-84
2022/04/06 02:04:29;;;;;;;24.67;17.93;;;;;;;;;;4974690;28;20386;-85
2022/04/06 02:06:54;;;;;;;27.98;19.30;;;;;;;;;;4972059;28;20286;-83
2022/04/06 02:09:20;;;;;;;25.35;17.15;;;;;;;;;;4966206;28;20045;-84
2022/04/06 02:11:45;;;;;;;25.52;17.80;;;;;;;;;;4975042;28;20122;-84
2022/04/06 02:14:11;;;;;;;26.00;18.20;;;;;;;;;;4973929;28;20027;-84
2022/04/06 02:16:37;;;;;;;26.13;18.55;;;;;;;;;;4975061;28;20034;-84
2022/04/06 02:19:03;;;;;;;25.73;17.73;;;;;;;;;;4973821;28;20078;-84
2022/04/06 02:21:28;;;;;;;23.58;17.67;;;;;;;;;;4973861;28;20045;-84
2022/04/06 02:23:53;;;;;;;25.33;18.13;;;;;;;;;;4976944;28;20129;-85
2022/04/06 02:26:19;;;;;;;25.60;17.73;;;;;;;;;;4974683;28;20041;-85
2022/04/06 02:28:44;;;;;;;22.45;17.02;;;;;;;;;;4989728;28;20031;-84
2022/04/06 02:31:09;;;;;;;23.38;17.67;;;;;;;;;;4965391;28;20154;-83
2022/04/06 02:33:35;;;;;;;24.75;17.92;;;;;;;;;;4976698;28;20058;-83
2022/04/06 02:36:00;;;;;;;23.27;17.30;;;;;;;;;;4975875;28;20043;-82
2022/04/06 02:38:25;;;;;;;24.60;17.40;;;;;;;;;;4973461;28;20038;-82
2022/04/06 02:40:51;;;;;;;25.70;18.00;;;;;;;;;;4974441;28;20049;-80
2022/04/06 02:43:17;;;;;;;26.33;18.20;;;;;;;;;;4975139;28;20514;-81
2022/04/06 02:45:42;;;;;;;21.92;16.40;;;;;;;;;;4975005;28;20125;-80
2022/04/06 02:48:07;;;;;;;22.45;16.40;;;;;;;;;;4975269;28;20130;-79
2022/04/06 02:50:33;;;;;;;22.45;16.58;;;;;;;;;;4976654;28;20066;-79
2022/04/06 02:52:58;;;;;;;23.85;16.33;;;;;;;;;;4975553;28;20038;-79
2022/04/06 02:55:23;;;;;;;23.33;16.98;;;;;;;;;;4972963;28;20031;-80
2022/04/06 02:57:52;;;;;;;21.77;16.60;;;;;;;;;;4963653;28;20525;-80
2022/04/06 03:00:18;;;;;;;23.45;16.42;;;;;;;;;;4972680;28;20064;-80
2022/04/06 03:02:44;;;;;;;24.70;16.80;;;;;;;;;;4973446;28;20038;-80
2022/04/06 03:05:10;;;;;;;23.02;16.77;;;;;;;;;;4975178;28;20034;-80
2022/04/06 03:07:35;;;;;;;27.95;17.02;;;;;;;;;;4964134;28;20057;-80
2022/04/06 03:10:01;;;;;;;22.13;16.58;;;;;;;;;;4973844;28;20046;-80
2022/04/06 03:12:27;;;;;;;21.95;15.50;;;;;;;;;;4973488;28;20546;-81
2022/04/06 03:14:52;;;;;;;22.45;15.57;;;;;;;;;;4980573;28;20117;-80
2022/04/06 03:17:17;;;;;;;19.38;14.85;;;;;;;;;;4976977;28;20486;-79
2022/04/06 03:19:43;;;;;;;18.73;14.10;;;;;;;;;;4976864;28;20074;-80
2022/04/06 03:22:08;;;;;;;18.67;14.27;;;;;;;;;;4973225;28;20058;-80
2022/04/06 03:24:34;;;;;;;17.08;13.10;;;;;;;;;;4976098;28;20043;-81
2022/04/06 03:26:59;;;;;;;21.35;14.60;;;;;;;;;;4973868;28;20043;-80
2022/04/06 03:29:25;;;;;;;18.52;13.63;;;;;;;;;;4974679;28;20034;-80
2022/04/06 03:31:50;;;;;;;19.30;13.75;;;;;;;;;;4973746;28;20525;-80
2022/04/06 03:34:16;;;;;;;18.23;12.75;;;;;;;;;;4973874;28;20046;-83
2022/04/06 03:36:41;;;;;;;18.27;13.05;;;;;;;;;;4974037;28;20141;-82
2022/04/06 03:39:06;;;;;;;18.90;13.30;;;;;;;;;;4974184;28;20105;-80
2022/04/06 03:41:31;;;;;;;21.63;13.95;;;;;;;;;;4973150;28;20034;-78
2022/04/06 03:43:57;;;;;;;17.42;11.75;;;;;;;;;;4975432;28;20034;-78
2022/04/06 03:46:22;;;;;;;20.75;12.93;;;;;;;;;;4975786;28;20117;-79
2022/04/06 03:48:47;;;;;;;17.33;12.50;;;;;;;;;;4974811;28;20038;-81
2022/04/06 03:51:13;;;;;;;15.75;11.45;;;;;;;;;;4957913;28;20039;-79
2022/04/06 03:53:38;;;;;;;17.90;12.07;;;;;;;;;;4959214;28;20066;-79
2022/04/06 03:56:04;;;;;;;18.55;12.10;;;;;;;;;;4974006;28;20038;-80
2022/04/06 03:58:29;;;;;;;17.75;12.15;;;;;;;;;;4975154;28;20039;-79
2022/04/06 04:00:54;;;;;;;17.98;11.57;;;;;;;;;;4972540;28;20070;-79
2022/04/06 04:03:20;;;;;;;17.02;12.10;;;;;;;;;;4975400;28;20039;-79
2022/04/06 04:05:45;;;;;;;16.10;11.32;;;;;;;;;;4972890;28;20572;-79
2022/04/06 04:08:10;;;;;;;19.60;11.68;;;;;;;;;;4974891;28;20026;-79
2022/04/06 04:10:36;;;;;;;18.67;11.65;;;;;;;;;;4975154;28;20429;-79
2022/04/06 04:13:02;;;;;;;18.20;12.50;;;;;;;;;;4973836;28;20054;-80
2022/04/06 04:15:27;;;;;;;20.33;11.95;;;;;;;;;;4981538;28;20041;-79
2022/04/06 04:17:52;;;;;;;21.42;13.00;;;;;;;;;;4974996;28;20031;-78
2022/04/06 04:20:18;;;;;;;19.13;12.77;;;;;;;;;;4981964;28;20042;-79
2022/04/06 04:22:43;;;;;;;17.83;12.45;;;;;;;;;;4973252;28;20996;-78
2022/04/06 04:25:10;;;;;;;17.17;12.23;;;;;;;;;;4982929;28;20041;-80
2022/04/06 04:27:37;;;;;;;20.88;13.30;;;;;;;;;;4974540;28;20433;-83
2022/04/06 04:30:03;;;;;;;18.40;12.85;;;;;;;;;;4980605;28;20050;-82
2022/04/06 04:32:28;;;;;;;20.90;13.20;;;;;;;;;;4979417;28;20089;-79
2022/04/06 04:34:54;;;;;;;20.33;13.38;;;;;;;;;;4964222;28;20039;-82
2022/04/06 04:37:19;;;;;;;19.13;13.10;;;;;;;;;;4963105;28;20034;-81
2022/04/06 04:39:44;;;;;;;21.40;13.35;;;;;;;;;;4979676;28;20055;-80
2022/04/06 04:42:10;;;;;;;22.45;13.75;;;;;;;;;;4982905;28;20034;-81
2022/04/06 04:44:35;;;;;;;20.23;13.10;;;;;;;;;;4975456;28;20093;-80
2022/04/06 04:47:01;;;;;;;18.38;12.50;;;;;;;;;;4976095;28;20042;-80
2022/04/06 04:49:26;;;;;;;22.38;13.90;;;;;;;;;;4976857;28;20034;-80
2022/04/06 04:51:51;;;;;;;20.63;14.02;;;;;;;;;;4960486;28;20505;-82
2022/04/06 04:54:17;;;;;;;20.20;13.45;;;;;;;;;;4978172;28;20034;-80
2022/04/06 04:56:42;;;;;;;22.55;13.73;;;;;;;;;;4963194;28;20054;-80
2022/04/06 04:59:08;;;;;;;20.75;13.63;;;;;;;;;;4975756;28;20066;-81
2022/04/06 05:01:33;;;;;;;22.05;13.75;;;;;;;;;;4974560;28;20045;-83
2022/04/06 05:03:59;;;;;;;20.00;13.70;;;;;;;;;;4979471;28;20034;-82
2022/04/06 05:06:24;;;;;;;21.73;14.18;;;;;;;;;;4977859;28;20042;-81
2022/04/06 05:08:49;;;;;;;20.48;14.52;;;;;;;;;;4968680;28;20475;-84
2022/04/06 05:11:15;;;;;;;19.95;14.32;;;;;;;;;;4979572;28;20035;-84
2022/04/06 05:13:41;;;;;;;22.38;14.40;;;;;;;;;;4975569;28;20034;-82
2022/04/06 05:16:06;;;;;;;19.75;13.93;;;;;;;;;;4976777;28;20089;-82
2022/04/06 05:18:34;;;;;;;21.50;14.30;;;;;;;;;;4974745;28;20023;-81
2022/04/06 05:21:00;;;;;;;22.23;14.35;;;;;;;;;;4957717;28;20046;-83
2022/04/06 05:23:26;;;;;;;21.70;13.60;;;;;;;;;;4974541;28;20061;-82
2022/04/06 05:25:51;;;;;;;19.67;14.25;;;;;;;;;;4974406;28;20039;-82
2022/04/06 05:28:18;;;;;;;24.90;14.88;;;;;;;;;;4976585;28;20126;-82
2022/04/06 05:30:45;;;;;;;22.02;14.90;;;;;;;;;;4978446;28;20054;-82
2022/04/06 05:33:11;;;;;;;24.80;15.18;;;;;;;;;;4976733;28;20043;-84
2022/04/06 05:35:36;;;;;;;24.63;15.23;;;;;;;;;;4974917;28;20612;-83
2022/04/06 05:38:01;;;;;;;21.70;14.30;;;;;;;;;;4974403;28;20050;-82
2022/04/06 05:40:27;;;;;;;25.30;15.13;;;;;;;;;;4973965;28;20050;-84
2022/04/06 05:42:52;;;;;;;24.05;14.10;;;;;;;;;;4973564;28;20042;-82
2022/04/06 05:45:18;;;;;;;20.70;14.23;;;;;;;;;;4976598;28;20494;-82
2022/04/06 05:47:43;;;;;;;24.48;15.05;;;;;;;;;;4974427;28;20027;-85
2022/04/06 05:50:10;;;;;;;20.40;13.98;;;;;;;;;;4973854;28;20442;-82
2022/04/06 05:52:35;;;;;;;24.48;14.90;;;;;;;;;;4964462;28;20035;-83
2022/04/06 05:55:01;;;;;;;24.35;15.13;;;;;;;;;;4976557;28;20066;-82
2022/04/06 05:57:26;;;;;;;24.83;14.65;;;;;;;;;;4982946;28;20248;-82
2022/04/06 05:59:51;;;;;;;26.13;15.02;;;;;;;;;;4976991;28;20038;-82
2022/04/06 06:02:18;;;;;;;22.92;14.90;;;;;;;;;;4975289;28;20031;-83
2022/04/06 06:04:44;;;;;;;26.20;15.13;;;;;;;;;;4976614;28;20058;-83
2022/04/06 06:07:10;;;;;;;25.08;15.65;;;;;;;;;;4965693;28;24311;-83
2022/04/06 06:09:36;;;;;;;26.83;16.15;;;;;;;;;;4975466;28;20050;-83
2022/04/06 06:12:02;;;;;;;29.38;16.88;;;;;;;;;;4972476;28;20125;-83
2022/04/06 06:14:28;;;;;;;25.40;17.17;;;;;;;;;;4961069;28;20140;-83
2022/04/06 06:16:53;;;;;;;28.15;16.73;;;;;;;;;;4974837;28;20117;-84
2022/04/06 06:19:19;;;;;;;30.40;17.45;;;;;;;;;;4975462;28;20050;-83
2022/04/06 06:21:45;;;;;;;28.42;17.65;;;;;;;;;;4972078;28;20035;-84
2022/04/06 06:24:10;;;;;;;28.20;18.35;;;;;;;;;;4981246;28;20062;-83
2022/04/06 06:26:37;;;;;;;28.65;17.80;;;;;;;;;;4973360;28;20093;-82
2022/04/06 06:29:03;;;;;;;26.30;17.40;;;;;;;;;;4974170;28;20425;-83
2022/04/06 06:31:28;;;;;;;26.25;17.10;;;;;;;;;;4975759;28;20276;-85
2022/04/06 06:33:55;;;;;;;27.25;18.60;;;;;;;;;;4973286;28;20357;-84
2022/04/06 06:36:20;;;;;;;28.77;17.42;;;;;;;;;;4959967;28;20042;-83
2022/04/06 06:38:45;;;;;;;29.30;18.35;;;;;;;;;;4974668;28;20061;-79
2022/04/06 06:41:11;;;;;;;33.15;18.92;;;;;;;;;;4974731;28;20035;-82
2022/04/06 06:43:36;;;;;;;30.25;19.20;;;;;;;;;;4973819;28;20042;-83
2022/04/06 06:46:01;;;;;;;26.10;18.00;;;;;;;;;;4973990;28;20042;-83
2022/04/06 06:48:26;;;;;;;28.80;19.35;;;;;;;;;;4975713;28;20402;-82
2022/04/06 06:50:52;;;;;;;28.95;19.50;;;;;;;;;;4972579;28;20034;-84
2022/04/06 06:53:17;;;;;;;29.35;19.20;;;;;;;;;;4975650;28;20038;-82
2022/04/06 06:55:42;;;;;;;28.65;19.38;;;;;;;;;;4975076;28;20069;-81
2022/04/06 06:58:08;;;;;;;27.75;19.15;;;;;;;;;;4966291;28;20807;-82
2022/04/06 07:00:33;;;;;;;32.35;19.80;;;;;;;;;;4972357;28;20464;-82
2022/04/06 07:02:58;;;;;;;30.05;18.52;;;;;;;;;;4974339;28;20731;-82
2022/04/06 07:05:24;;;;;;;29.30;19.17;;;;;;;;;;4957281;28;20041;-83
2022/04/06 07:07:55;;;;;;;29.75;18.80;;;;;;;;;;4977596;28;20096;-82
2022/04/06 07:10:22;;;;;;;29.73;18.58;;;;;;;;;;4972541;28;20062;-82
2022/04/06 07:12:47;;;;;;;26.83;18.67;;;;;;;;;;4981335;28;20041;-82
2022/04/06 07:15:12;;;;;;;30.58;18.65;;;;;;;;;;4974062;28;20039;-82
2022/04/06 07:17:38;;;;;;;26.13;18.27;;;;;;;;;;4972284;28;20514;-81
2022/04/06 07:20:04;;;;;;;30.58;18.35;;;;;;;;;;4965722;28;20034;-83
2022/04/06 07:22:32;;;;;;;26.70;16.90;;;;;;;;;;4974152;28;20113;-83
2022/04/06 07:24:57;;;;;;;24.75;16.35;;;;;;;;;;4958988;28;20058;-82
2022/04/06 07:27:22;;;;;;;23.08;15.70;;;;;;;;;;4974087;28;20034;-82
2022/04/06 07:29:48;;;;;;;22.08;15.15;;;;;;;;;;4973580;28;20035;-83
2022/04/06 07:32:13;;;;;;;23.20;15.40;;;;;;;;;;4970051;28;20035;-83
2022/04/06 07:34:38;;;;;;;21.27;14.23;;;;;;;;;;4974958;28;20074;-83
2022/04/06 07:37:04;;;;;;;21.48;13.48;;;;;;;;;;4962954;28;20517;-83
2022/04/06 07:39:29;;;;;;;19.50;13.52;;;;;;;;;;4971348;28;20030;-83
2022/04/06 07:41:58;;;;;;;22.15;13.80;;;;;;;;;;4972135;28;20048;-82
2022/04/06 07:44:23;;;;;;;19.13;12.43;;;;;;;;;;4962605;28;20073;-83
2022/04/06 07:46:49;;;;;;;20.58;12.10;;;;;;;;;;4972886;28;20062;-83
2022/04/06 07:49:14;;;;;;;16.70;11.48;;;;;;;;;;4972303;28;20045;-82
2022/04/06 07:51:39;;;;;;;17.67;10.82;;;;;;;;;;4958928;28;20042;-83
2022/04/06 07:54:05;;;;;;;21.77;11.15;;;;;;;;;;4972638;28;20030;-84
2022/04/06 07:56:30;;;;;;;16.00;10.68;;;;;;;;;;4972007;28;20081;-83
2022/04/06 07:58:55;;;;;;;19.15;10.40;;;;;;;;;;4970262;28;20457;-82
2022/04/06 08:01:21;;;;;;;19.00;10.52;;;;;;;;;;4980801;28;20039;-82
2022/04/06 08:03:46;;;;;;;15.88;9.38;;;;;;;;;;4974291;28;20090;-82
2022/04/06 08:06:12;;;;;;;14.77;9.18;;;;;;;;;;4976405;28;20054;-85
2022/04/06 08:08:37;;;;;;;14.52;9.70;;;;;;;;;;4976727;28;20039;-83
2022/04/06 08:11:05;;;;;;;17.67;9.07;;;;;;;;;;4968192;28;20875;-83
2022/04/06 08:13:30;;;;;;;;;;;;;;;;;;4963611;28;20031;-85
2022/04/06 08:15:57;;;;;;;14.20;8.00;;;;;;;;;;4968456;28;19920;-82
2022/04/06 08:18:23;;;;;;;13.77;8.30;;;;;;;;;;4975767;28;20385;-81
2022/04/06 08:20:48;;;;;;;15.48;8.07;;;;;;;;;;4976184;28;20042;-83
2022/04/06 08:23:17;;;;;;;15.57;7.35;;;;;;;;;;4975119;28;20062;-85
2022/04/06 08:25:42;;;;;;;13.90;7.28;;;;;;;;;;4976939;28;20102;-83
2022/04/06 08:28:08;;;;;;;12.48;7.25;;;;;;;;;;4983831;28;20118;-85
2022/04/06 08:30:39;;;;;;;11.30;6.72;;;;;;;;;;4977358;28;20681;-83
2022/04/06 08:33:05;;;;;;;13.23;6.45;;;;;;;;;;4978698;28;20104;-83
2022/04/06 08:35:30;;;;;;;13.38;7.35;;;;;;;;;;4975725;28;20484;-82
2022/04/06 08:37:55;;;;;;;10.75;6.63;;;;;;;;;;4975373;28;20085;-84
2022/04/06 08:40:21;;;;;;;14.93;7.32;;;;;;;;;;4975437;28;20101;-82
2022/04/06 08:42:47;;;;;;;11.02;6.95;;;;;;;;;;4976891;28;20161;-83
2022/04/06 08:45:12;;;;;;;12.48;7.30;;;;;;;;;;4967505;28;20540;-83
2022/04/06 08:47:37;;;;;;;15.82;8.05;;;;;;;;;;4972898;28;20095;-82
2022/04/06 08:50:07;;;;;;;11.05;6.43;;;;;;;;;;4976417;28;20670;-82
2022/04/06 08:52:33;;;;;;;15.48;7.45;;;;;;;;;;4974479;28;20401;-83
2022/04/06 08:54:59;;;;;;;12.18;6.78;;;;;;;;;;4977363;28;20089;-82
2022/04/06 08:57:26;;;;;;;11.48;6.70;;;;;;;;;;4974217;28;20034;-82
2022/04/06 08:59:51;;;;;;;11.15;6.35;;;;;;;;;;4976620;28;20083;-82
2022/04/06 09:02:20;;;;;;;12.45;6.80;;;;;;;;;;4974004;28;20061;-82
2022/04/06 09:04:52;;;;;;;14.88;6.38;;;;;;;;;;4977343;28;20034;-82
2022/04/06 09:07:20;;;;;;;9.68;6.18;;;;;;;;;;4982475;28;20126;-83
2022/04/06 09:09:48;;;;;;;;;;;;;;;;;;4975481;28;20034;-83
2022/04/06 09:12:17;;;;;;;;;;;;;;;;;;4975254;28;20469;-82
2022/04/06 09:14:42;;;;;;;12.48;6.50;;;;;;;;;;4973878;28;20423;-82
2022/04/06 09:17:08;;;;;;;12.32;6.63;;;;;;;;;;4973775;28;20034;-83
2022/04/06 09:19:37;;;;;;;11.52;6.50;;;;;;;;;;4975216;28;20038;-83
2022/04/06 09:22:05;;;;;;;10.40;5.60;;;;;;;;;;4974084;28;20479;-83
2022/04/06 09:24:31;;;;;;;11.25;5.85;;;;;;;;;;4977421;28;20046;-82
2022/04/06 09:26:57;;;;;;;11.07;6.05;;;;;;;;;;4974105;28;20033;-84
2022/04/06 09:29:23;;;;;;;11.70;6.32;;;;;;;;;;4975498;28;20482;-83
2022/04/06 09:31:49;;;;;;;11.52;5.93;;;;;;;;;;4973457;28;20038;-83
2022/04/06 09:34:15;;;;;;;13.98;6.45;;;;;;;;;;4974701;28;20137;-83
2022/04/06 09:36:40;;;;;;;11.23;5.95;;;;;;;;;;4975257;28;20046;-83
2022/04/06 09:39:07;;;;;;;11.02;6.20;;;;;;;;;;4979134;28;20038;-83
2022/04/06 09:41:33;;;;;;;13.18;6.55;;;;;;;;;;4973201;28;20130;-83
2022/04/06 09:44:09;;;;;;;11.98;6.63;;;;;;;;;;4975670;28;20031;-84
2022/04/06 09:49:19;;;;;;;10.88;6.72;;;;;;;;;;4974110;28;20077;-84
2022/04/06 09:51:48;;;;;;;11.40;6.33;;;;;;;;;;4982291;28;20466;-84
2022/04/06 09:54:14;;;;;;;10.43;6.47;;;;;;;;;;4975276;28;20034;-83
2022/04/06 09:56:41;;;;;;;13.40;7.10;;;;;;;;;;4973275;28;20046;-83
2022/04/06 09:59:08;;;;;;;12.93;6.90;;;;;;;;;;4982786;28;20042;-83
2022/04/06 10:01:39;;;;;;;12.10;7.25;;;;;;;;;;4973780;28;20379;-84
2022/04/06 10:04:06;;;;;;;11.43;7.10;;;;;;;;;;4975681;28;20157;-85
2022/04/06 10:06:34;;;;;;;11.45;7.47;;;;;;;;;;4981775;28;20644;-83
2022/04/06 10:09:01;;;;;;;9.68;6.78;;;;;;;;;;4975379;28;20050;-84
2022/04/06 10:11:27;;;;;;;15.40;6.90;;;;;;;;;;4973252;28;20038;-83
2022/04/06 10:13:53;;;;;;;12.15;6.90;;;;;;;;;;4978143;28;20458;-83
2022/04/06 10:16:20;;;;;;;10.65;6.68;;;;;;;;;;4975019;28;20077;-84
2022/04/06 10:18:46;;;;;;;10.80;6.18;;;;;;;;;;4974274;28;20041;-84
2022/04/06 10:21:36;;;;;;;11.20;6.60;;;;;;;;;;4973120;28;20049;-83
2022/04/06 10:24:26;;;;;;;13.07;7.60;;;;;;;;;;4983311;28;20121;-83
2022/04/06 10:27:03;;;;;;;13.05;6.68;;;;;;;;;;4979844;28;20506;-82
2022/04/06 10:29:29;;;;;;;10.77;6.35;;;;;;;;;;4965815;28;20038;-83
2022/04/06 10:31:54;;;;;;;13.27;6.80;;;;;;;;;;4973777;28;20049;-83
2022/04/06 10:34:27;;;;;;;16.30;7.05;;;;;;;;;;4976560;28;20070;-83
2022/04/06 10:37:12;;;;;;;14.48;6.35;;;;;;;;;;4970732;28;20034;-83
2022/04/06 10:39:53;;;;;;;11.35;6.20;;;;;;;;;;4973307;28;20034;-83
2022/04/06 10:42:28;;;;;;;11.10;6.30;;;;;;;;;;4974908;28;20051;-82
2022/04/06 10:44:53;;;;;;;11.18;5.90;;;;;;;;;;4974819;28;20521;-83
2022/04/06 10:47:20;;;;;;;10.02;5.28;;;;;;;;;;4973735;28;20030;-83
2022/04/06 10:50:08;;;;;;;10.38;5.95;;;;;;;;;;4973548;28;20041;-82
2022/04/06 10:52:34;;;;;;;12.85;5.63;;;;;;;;;;4978008;28;20564;-83
2022/04/06 10:55:07;;;;;;;12.48;5.63;;;;;;;;;;4981240;28;20039;-82
2022/04/06 10:57:59;;;;;;;11.75;5.55;;;;;;;;;;4973416;28;20093;-82
2022/04/06 11:00:25;;;;;;;8.48;4.85;;;;;;;;;;4960111;28;20158;-81
2022/04/06 11:02:52;;;;;;;10.45;5.40;;;;;;;;;;4974698;28;20506;-84
2022/04/06 11:05:45;;;;;;;9.00;5.25;;;;;;;;;;4972752;28;20423;-82
2022/04/06 11:11:48;;;;;;;11.10;5.55;;;;;;;;;;4927831;28;20631;-83
2022/04/06 11:14:28;;;;;;;13.48;5.88;;;;;;;;;;4955830;28;20101;-84
2022/04/06 11:16:53;;;;;;;10.93;5.70;;;;;;;;;;4935963;28;20042;-83
2022/04/06 11:19:19;;;;;;;9.57;5.60;;;;;;;;;;4934480;28;20032;-83
2022/04/06 11:21:52;;;;;;;11.90;5.63;;;;;;;;;;4948205;28;20429;-84
2022/04/06 11:24:20;;;;;;;11.82;5.47;;;;;;;;;;4938657;28;20042;-83
2022/04/06 11:26:45;;;;;;;10.18;6.07;;;;;;;;;;4932082;28;20054;-84
2022/04/06 11:29:11;;;;;;;8.82;5.07;;;;;;;;;;4943703;28;21146;-84
2022/04/06 11:31:53;;;;;;;10.65;5.55;;;;;;;;;;4945183;28;20067;-83
2022/04/06 11:34:38;;;;;;;10.20;5.30;;;;;;;;;;4935517;28;21063;-84
2022/04/06 11:37:05;;;;;;;9.50;5.15;;;;;;;;;;4933932;28;20046;-86
2022/04/06 11:39:31;;;;;;;10.82;6.00;;;;;;;;;;4938362;28;20040;-83
2022/04/06 11:41:58;;;;;;;10.27;5.68;;;;;;;;;;4955065;28;20241;-84
2022/04/06 11:44:24;;;;;;;13.68;5.95;;;;;;;;;;4959013;28;20342;-83
2022/04/06 11:46:51;;;;;;;12.27;5.85;;;;;;;;;;4958590;28;20455;-83
2022/04/06 11:49:29;;;;;;;14.20;6.03;;;;;;;;;;4937735;28;20035;-83
2022/04/06 11:51:56;;;;;;;13.65;9.23;;;;;;;;;;4943820;28;20974;-83
2022/04/06 11:54:22;;;;;;;13.35;5.90;;;;;;;;;;4936880;28;20042;-83
2022/04/06 11:56:49;;;;;;;10.07;5.47;;;;;;;;;;4952809;28;20039;-82
2022/04/06 11:59:16;;;;;;;10.80;5.80;;;;;;;;;;4958507;28;20035;-82
2022/04/06 12:01:42;;;;;;;11.18;5.45;;;;;;;;;;4957388;28;20047;-83
2022/04/06 12:04:23;;;;;;;11.07;5.57;;;;;;;;;;4958012;28;20390;-82
2022/04/06 12:06:49;;;;;;;10.93;5.13;;;;;;;;;;4967950;28;20038;-84
2022/04/06 12:09:15;;;;;;;10.27;5.43;;;;;;;;;;4979073;28;20039;-84
2022/04/06 12:11:40;;;;;;;11.93;5.43;;;;;;;;;;4978977;28;20461;-82
2022/04/06 12:14:10;;;;;;;10.02;4.85;;;;;;;;;;4978328;28;20129;-85
2022/04/06 12:16:36;;;;;;;7.90;4.70;;;;;;;;;;4975380;28;20065;-83
2022/04/06 12:19:05;;;;;;;11.98;5.18;;;;;;;;;;4982251;28;20471;-85
2022/04/06 12:21:30;;;;;;;9.30;4.93;;;;;;;;;;4976865;28;20034;-85
2022/04/06 12:23:56;;;;;;;8.88;4.95;;;;;;;;;;4975517;28;20035;-84
2022/04/06 12:26:22;;;;;;;12.55;5.43;;;;;;;;;;4976043;28;20062;-83
2022/04/06 12:28:48;;;;;;;10.73;5.20;;;;;;;;;;4978077;28;20046;-84
2022/04/06 12:31:13;;;;;;;10.40;5.15;;;;;;;;;;4976490;28;20050;-82
2022/04/06 12:33:50;;;;;;;9.48;4.80;;;;;;;;;;4976357;28;20046;-83
2022/04/06 12:36:25;;;;;;;10.82;5.20;;;;;;;;;;4976279;28;20092;-83
2022/04/06 12:39:09;;;;;;;11.95;5.60;;;;;;;;;;4957268;28;20043;-84
2022/04/06 12:41:53;;;;;;;10.52;5.13;;;;;;;;;;4967631;28;20533;-82
2022/04/06 12:44:22;;;;;;;13.38;5.40;;;;;;;;;;4953704;28;20399;-83
2022/04/06 12:46:49;;;;;;;9.05;4.90;;;;;;;;;;4969110;28;20051;-83
2022/04/06 12:49:37;;;;;;;11.65;5.22;;;;;;;;;;4985497;28;20490;-83
2022/04/06 12:52:08;;;;;;;9.25;5.05;;;;;;;;;;4946635;28;20042;-83
2022/04/06 12:54:36;;;;;;;9.20;4.57;;;;;;;;;;4956387;28;20399;-83
2022/04/06 12:57:13;;;;;;;8.68;5.10;;;;;;;;;;4970320;28;20034;-83
2022/04/06 12:59:54;;;;;;;8.50;4.97;;;;;;;;;;4975662;28;20070;-83
2022/04/06 13:02:30;;;;;;;8.68;4.43;;;;;;;;;;4963962;28;20039;-84
2022/04/06 13:05:02;;;;;;;9.75;4.70;;;;;;;;;;4955254;28;20488;-83
2022/04/06 13:07:28;;;;;;;9.07;4.53;;;;;;;;;;4965945;28;20047;-83
2022/04/06 13:09:55;;;;;;;10.40;4.72;;;;;;;;;;4966890;28;20457;-82
2022/04/06 13:12:22;;;;;;;9.68;4.43;;;;;;;;;;4982675;28;20050;-82
2022/04/06 13:14:49;;;;;;;7.63;3.78;;;;;;;;;;4954572;28;20098;-83
2022/04/06 13:17:15;;;;;;;8.05;4.28;;;;;;;;;;4971875;28;20035;-83
2022/04/06 13:19:40;;;;;;;7.05;3.90;;;;;;;;;;4975794;28;20097;-84
2022/04/06 13:22:06;;;;;;;8.40;4.32;;;;;;;;;;4959718;28;20060;-82
2022/04/06 13:24:34;;;;;;;7.75;4.65;;;;;;;;;;4974669;28;20046;-82
2022/04/06 13:27:01;;;;;;;9.35;4.35;;;;;;;;;;4974604;28;20075;-84
2022/04/06 13:29:26;;;;;;;7.55;4.03;;;;;;;;;;4968430;28;20034;-82
2022/04/06 13:31:51;;;;;;;8.57;4.00;;;;;;;;;;4975815;28;20088;-83
2022/04/06 13:34:19;;;;;;;9.43;4.07;;;;;;;;;;4976180;28;20043;-84
2022/04/06 13:36:45;;;;;;;6.85;3.65;;;;;;;;;;4975153;28;20041;-83
2022/04/06 13:39:10;;;;;;;6.80;3.97;;;;;;;;;;4982313;28;20509;-83
2022/04/06 13:41:35;;;;;;;8.65;4.32;;;;;;;;;;4973562;28;20034;-84
2022/04/06 13:44:00;;;;;;;8.95;3.83;;;;;;;;;;4978433;28;20442;-82
2022/04/06 13:46:26;;;;;;;12.10;4.13;;;;;;;;;;4975750;28;20030;-82
2022/04/06 13:48:56;;;;;;;7.85;3.80;;;;;;;;;;4974616;28;20154;-83
2022/04/06 13:51:21;;;;;;;6.13;3.88;;;;;;;;;;4969334;28;20136;-83
2022/04/06 13:53:47;;;;;;;8.93;4.38;;;;;;;;;;4976252;28;20114;-83
2022/04/06 13:56:12;;;;;;;9.70;4.18;;;;;;;;;;4974568;28;20048;-85
2022/04/06 13:58:37;;;;;;;6.82;3.92;;;;;;;;;;4975705;28;20046;-83
2022/04/06 14:01:03;;;;;;;11.30;3.70;;;;;;;;;;4975024;28;20038;-85
2022/04/06 14:03:28;;;;;;;9.68;4.30;;;;;;;;;;4974444;28;20031;-84
2022/04/06 14:05:55;;;;;;;9.32;4.13;;;;;;;;;;4975365;28;20057;-83
2022/04/06 14:08:22;;;;;;;6.90;4.20;;;;;;;;;;4974924;28;20058;-85
2022/04/06 14:10:48;;;;;;;8.07;4.35;;;;;;;;;;4980560;28;20041;-84
2022/04/06 14:13:14;;;;;;;8.05;4.85;;;;;;;;;;4974826;28;20066;-84
2022/04/06 14:15:40;;;;;;;8.23;4.70;;;;;;;;;;4974768;28;20064;-85
2022/04/06 14:18:05;;;;;;;7.03;4.18;;;;;;;;;;4977798;28;20165;-84
2022/04/06 14:20:31;;;;;;;10.43;4.97;;;;;;;;;;4974559;28;20141;-84
2022/04/06 14:22:56;;;;;;;10.38;4.88;;;;;;;;;;4959171;28;20045;-84
2022/04/06 14:25:23;;;;;;;11.30;5.35;;;;;;;;;;4973939;28;20101;-83
2022/04/06 14:27:49;;;;;;;11.32;5.07;;;;;;;;;;4972378;28;20429;-85
2022/04/06 14:30:16;;;;;;;8.55;5.10;;;;;;;;;;4976247;28;20038;-84
2022/04/06 14:32:42;;;;;;;9.07;5.25;;;;;;;;;;4972712;28;20212;-85
2022/04/06 14:35:08;;;;;;;8.52;5.00;;;;;;;;;;4974844;28;20122;-83